sensor_id;sensor_type;location;lat;lon;timestamp;P1;durP1;ratioP1;P2;durP2;ratioP2
68168;SDS011;54981;50.206;15.978;2022-11-15T00:01:20;47.83;;;40.85;;
68168;SDS011;54981;50.206;15.978;2022-11-15T00:03:50;52.72;;;47.13;;
68168;SDS011;54981;50.206;15.978;2022-11-15T00:06:16;49.20;;;39.72;;
68168;SDS011;54981;50.206;15.978;2022-11-15T00:08:42;54.47;;;48.97;;
68168;SDS011;54981;50.206;15.978;2022-11-15T00:11:08;55.90;;;50.05;;
68168;SDS011;54981;50.206;15.978;2022-11-15T00:13:35;49.60;;;38.30;;
68168;SDS011;54981;50.206;15.978;2022-11-15T00:16:00;39.72;;;35.63;;
68168;SDS011;54981;50.206;15.978;2022-11-15T00:18:26;47.63;;;42.78;;
68168;SDS011;54981;50.206;15.978;2022-11-15T00:20:52;38.47;;;33.75;;
68168;SDS011;54981;50.206;15.978;2022-11-15T00:23:17;44.70;;;39.50;;
68168;SDS011;54981;50.206;15.978;2022-11-15T00:25:42;44.83;;;40.35;;
68168;SDS011;54981;50.206;15.978;2022-11-15T00:28:08;42.22;;;34.22;;
68168;SDS011;54981;50.206;15.978;2022-11-15T00:30:33;43.80;;;34.75;;
68168;SDS011;54981;50.206;15.978;2022-11-15T00:33:06;42.85;;;34.58;;
68168;SDS011;54981;50.206;15.978;2022-11-15T00:35:32;49.15;;;44.05;;
68168;SDS011;54981;50.206;15.978;2022-11-15T00:37:58;45.38;;;40.40;;
68168;SDS011;54981;50.206;15.978;2022-11-15T00:40:24;49.90;;;44.45;;
68168;SDS011;54981;50.206;15.978;2022-11-15T00:42:49;53.13;;;46.13;;
68168;SDS011;54981;50.206;15.978;2022-11-15T00:45:15;46.95;;;35.22;;
68168;SDS011;54981;50.206;15.978;2022-11-15T00:47:40;49.08;;;44.00;;
68168;SDS011;54981;50.206;15.978;2022-11-15T00:50:05;38.92;;;33.97;;
68168;SDS011;54981;50.206;15.978;2022-11-15T00:52:31;32.10;;;27.50;;
68168;SDS011;54981;50.206;15.978;2022-11-15T00:54:56;43.97;;;39.60;;
68168;SDS011;54981;50.206;15.978;2022-11-15T00:57:22;53.25;;;47.63;;
68168;SDS011;54981;50.206;15.978;2022-11-15T00:59:47;42.67;;;34.45;;
68168;SDS011;54981;50.206;15.978;2022-11-15T01:02:12;45.60;;;37.03;;
68168;SDS011;54981;50.206;15.978;2022-11-15T01:04:38;48.92;;;37.35;;
68168;SDS011;54981;50.206;15.978;2022-11-15T01:07:04;52.20;;;38.83;;
68168;SDS011;54981;50.206;15.978;2022-11-15T01:09:29;44.08;;;37.25;;
68168;SDS011;54981;50.206;15.978;2022-11-15T01:11:54;47.17;;;37.13;;
68168;SDS011;54981;50.206;15.978;2022-11-15T01:14:20;49.47;;;39.03;;
68168;SDS011;54981;50.206;15.978;2022-11-15T01:16:45;63.63;;;45.35;;
68168;SDS011;54981;50.206;15.978;2022-11-15T01:19:10;44.25;;;39.75;;
68168;SDS011;54981;50.206;15.978;2022-11-15T01:21:36;44.83;;;34.10;;
68168;SDS011;54981;50.206;15.978;2022-11-15T01:24:01;42.15;;;32.70;;
68168;SDS011;54981;50.206;15.978;2022-11-15T01:26:27;36.72;;;30.00;;
68168;SDS011;54981;50.206;15.978;2022-11-15T01:28:52;40.47;;;33.88;;
68168;SDS011;54981;50.206;15.978;2022-11-15T01:31:19;43.05;;;36.53;;
68168;SDS011;54981;50.206;15.978;2022-11-15T01:33:46;45.55;;;36.28;;
68168;SDS011;54981;50.206;15.978;2022-11-15T01:36:13;48.42;;;42.83;;
68168;SDS011;54981;50.206;15.978;2022-11-15T01:38:40;51.92;;;37.55;;
68168;SDS011;54981;50.206;15.978;2022-11-15T01:41:05;45.63;;;36.67;;
68168;SDS011;54981;50.206;15.978;2022-11-15T01:43:35;55.63;;;40.38;;
68168;SDS011;54981;50.206;15.978;2022-11-15T01:46:06;43.65;;;35.90;;
68168;SDS011;54981;50.206;15.978;2022-11-15T01:48:55;41.20;;;32.05;;
68168;SDS011;54981;50.206;15.978;2022-11-15T01:51:25;37.00;;;31.77;;
68168;SDS011;54981;50.206;15.978;2022-11-15T01:53:55;37.53;;;31.13;;
68168;SDS011;54981;50.206;15.978;2022-11-15T01:56:25;37.67;;;31.70;;
68168;SDS011;54981;50.206;15.978;2022-11-15T01:58:55;44.65;;;35.03;;
68168;SDS011;54981;50.206;15.978;2022-11-15T02:01:24;49.97;;;37.63;;
68168;SDS011;54981;50.206;15.978;2022-11-15T02:03:58;47.80;;;38.50;;
68168;SDS011;54981;50.206;15.978;2022-11-15T02:06:26;47.08;;;36.85;;
68168;SDS011;54981;50.206;15.978;2022-11-15T02:08:51;55.17;;;49.30;;
68168;SDS011;54981;50.206;15.978;2022-11-15T02:11:17;59.90;;;44.85;;
68168;SDS011;54981;50.206;15.978;2022-11-15T02:13:42;63.40;;;45.35;;
68168;SDS011;54981;50.206;15.978;2022-11-15T02:16:13;61.40;;;45.53;;
68168;SDS011;54981;50.206;15.978;2022-11-15T02:18:41;47.25;;;36.38;;
68168;SDS011;54981;50.206;15.978;2022-11-15T02:21:36;36.60;;;30.27;;
68168;SDS011;54981;50.206;15.978;2022-11-15T02:38:31;44.70;;;31.30;;
68168;SDS011;54981;50.206;15.978;2022-11-15T02:41:01;42.97;;;31.02;;
68168;SDS011;54981;50.206;15.978;2022-11-15T02:49:30;33.70;;;29.33;;
68168;SDS011;54981;50.206;15.978;2022-11-15T02:51:57;35.08;;;28.67;;
68168;SDS011;54981;50.206;15.978;2022-11-15T02:54:24;34.83;;;31.08;;
68168;SDS011;54981;50.206;15.978;2022-11-15T02:56:52;39.00;;;30.65;;
68168;SDS011;54981;50.206;15.978;2022-11-15T03:02:32;43.53;;;39.10;;
68168;SDS011;54981;50.206;15.978;2022-11-15T03:05:13;42.50;;;32.38;;
68168;SDS011;54981;50.206;15.978;2022-11-15T03:18:52;46.60;;;34.35;;
68168;SDS011;54981;50.206;15.978;2022-11-15T03:21:22;51.22;;;37.92;;
68168;SDS011;54981;50.206;15.978;2022-11-15T03:23:49;30.65;;;27.50;;
68168;SDS011;54981;50.206;15.978;2022-11-15T03:26:17;34.78;;;29.02;;
68168;SDS011;54981;50.206;15.978;2022-11-15T03:28:50;42.22;;;32.45;;
68168;SDS011;54981;50.206;15.978;2022-11-15T03:31:19;40.47;;;34.17;;
68168;SDS011;54981;50.206;15.978;2022-11-15T03:34:06;31.08;;;27.20;;
68168;SDS011;54981;50.206;15.978;2022-11-15T03:36:37;37.30;;;30.95;;
68168;SDS011;54981;50.206;15.978;2022-11-15T03:39:05;39.15;;;31.60;;
68168;SDS011;54981;50.206;15.978;2022-11-15T03:41:37;32.75;;;28.05;;
68168;SDS011;54981;50.206;15.978;2022-11-15T03:46:51;30.23;;;26.98;;
68168;SDS011;54981;50.206;15.978;2022-11-15T03:49:38;32.22;;;26.98;;
68168;SDS011;54981;50.206;15.978;2022-11-15T03:52:07;38.70;;;32.10;;
68168;SDS011;54981;50.206;15.978;2022-11-15T03:54:35;41.58;;;37.40;;
68168;SDS011;54981;50.206;15.978;2022-11-15T03:57:00;37.63;;;30.67;;
68168;SDS011;54981;50.206;15.978;2022-11-15T03:59:26;41.72;;;32.20;;
68168;SDS011;54981;50.206;15.978;2022-11-15T04:01:51;41.80;;;33.80;;
68168;SDS011;54981;50.206;15.978;2022-11-15T04:04:16;43.53;;;35.22;;
68168;SDS011;54981;50.206;15.978;2022-11-15T04:06:42;44.38;;;35.17;;
68168;SDS011;54981;50.206;15.978;2022-11-15T04:09:07;42.75;;;35.80;;
68168;SDS011;54981;50.206;15.978;2022-11-15T04:11:32;49.17;;;37.13;;
68168;SDS011;54981;50.206;15.978;2022-11-15T04:13:58;56.58;;;41.03;;
68168;SDS011;54981;50.206;15.978;2022-11-15T04:16:23;52.22;;;39.13;;
68168;SDS011;54981;50.206;15.978;2022-11-15T04:18:48;64.65;;;45.17;;
68168;SDS011;54981;50.206;15.978;2022-11-15T04:21:33;59.05;;;42.85;;
68168;SDS011;54981;50.206;15.978;2022-11-15T04:24:17;56.42;;;40.22;;
68168;SDS011;54981;50.206;15.978;2022-11-15T04:26:43;49.08;;;34.42;;
68168;SDS011;54981;50.206;15.978;2022-11-15T04:29:08;39.92;;;32.17;;
68168;SDS011;54981;50.206;15.978;2022-11-15T04:31:52;53.55;;;38.33;;
68168;SDS011;54981;50.206;15.978;2022-11-15T04:34:17;53.47;;;39.67;;
68168;SDS011;54981;50.206;15.978;2022-11-15T04:36:42;52.03;;;43.00;;
68168;SDS011;54981;50.206;15.978;2022-11-15T04:39:26;50.25;;;41.60;;
68168;SDS011;54981;50.206;15.978;2022-11-15T04:41:52;50.03;;;38.33;;
68168;SDS011;54981;50.206;15.978;2022-11-15T04:44:17;49.22;;;39.30;;
68168;SDS011;54981;50.206;15.978;2022-11-15T04:46:42;47.45;;;37.42;;
68168;SDS011;54981;50.206;15.978;2022-11-15T04:49:08;51.22;;;37.90;;
68168;SDS011;54981;50.206;15.978;2022-11-15T04:51:33;49.00;;;39.05;;
68168;SDS011;54981;50.206;15.978;2022-11-15T04:53:58;42.95;;;34.92;;
68168;SDS011;54981;50.206;15.978;2022-11-15T04:56:24;47.45;;;38.28;;
68168;SDS011;54981;50.206;15.978;2022-11-15T04:58:49;46.13;;;35.03;;
68168;SDS011;54981;50.206;15.978;2022-11-15T05:01:15;46.70;;;35.88;;
68168;SDS011;54981;50.206;15.978;2022-11-15T05:03:41;48.72;;;39.20;;
68168;SDS011;54981;50.206;15.978;2022-11-15T05:06:26;46.38;;;36.50;;
68168;SDS011;54981;50.206;15.978;2022-11-15T05:08:51;40.03;;;33.83;;
68168;SDS011;54981;50.206;15.978;2022-11-15T05:11:17;41.95;;;34.75;;
68168;SDS011;54981;50.206;15.978;2022-11-15T05:13:42;42.25;;;33.38;;
68168;SDS011;54981;50.206;15.978;2022-11-15T05:16:08;39.85;;;32.22;;
68168;SDS011;54981;50.206;15.978;2022-11-15T05:18:33;43.40;;;34.35;;
68168;SDS011;54981;50.206;15.978;2022-11-15T05:21:03;37.05;;;32.35;;
68168;SDS011;54981;50.206;15.978;2022-11-15T05:23:35;42.50;;;35.63;;
68168;SDS011;54981;50.206;15.978;2022-11-15T05:26:01;43.35;;;35.30;;
68168;SDS011;54981;50.206;15.978;2022-11-15T05:28:28;42.33;;;34.65;;
68168;SDS011;54981;50.206;15.978;2022-11-15T05:30:53;44.15;;;32.25;;
68168;SDS011;54981;50.206;15.978;2022-11-15T05:33:18;46.08;;;35.45;;
68168;SDS011;54981;50.206;15.978;2022-11-15T05:35:48;44.95;;;38.08;;
68168;SDS011;54981;50.206;15.978;2022-11-15T05:38:19;51.22;;;38.30;;
68168;SDS011;54981;50.206;15.978;2022-11-15T05:40:45;49.47;;;38.97;;
68168;SDS011;54981;50.206;15.978;2022-11-15T05:43:11;54.88;;;41.13;;
68168;SDS011;54981;50.206;15.978;2022-11-15T05:45:36;57.25;;;40.58;;
68168;SDS011;54981;50.206;15.978;2022-11-15T05:48:03;45.70;;;34.85;;
68168;SDS011;54981;50.206;15.978;2022-11-15T05:50:32;37.03;;;28.80;;
68168;SDS011;54981;50.206;15.978;2022-11-15T05:52:59;40.72;;;31.42;;
68168;SDS011;54981;50.206;15.978;2022-11-15T05:55:25;40.83;;;32.83;;
68168;SDS011;54981;50.206;15.978;2022-11-15T05:57:51;31.42;;;27.40;;
68168;SDS011;54981;50.206;15.978;2022-11-15T06:00:16;38.20;;;31.17;;
68168;SDS011;54981;50.206;15.978;2022-11-15T06:02:42;36.35;;;32.38;;
68168;SDS011;54981;50.206;15.978;2022-11-15T06:05:07;40.05;;;32.45;;
68168;SDS011;54981;50.206;15.978;2022-11-15T06:07:33;39.47;;;32.40;;
68168;SDS011;54981;50.206;15.978;2022-11-15T06:09:58;39.15;;;34.88;;
68168;SDS011;54981;50.206;15.978;2022-11-15T06:12:23;41.53;;;33.13;;
68168;SDS011;54981;50.206;15.978;2022-11-15T06:14:49;46.80;;;36.17;;
68168;SDS011;54981;50.206;15.978;2022-11-15T06:17:14;135.75;;;88.55;;
68168;SDS011;54981;50.206;15.978;2022-11-15T06:19:39;111.18;;;74.85;;
68168;SDS011;54981;50.206;15.978;2022-11-15T06:22:05;70.40;;;49.00;;
68168;SDS011;54981;50.206;15.978;2022-11-15T06:24:30;64.50;;;47.83;;
68168;SDS011;54981;50.206;15.978;2022-11-15T06:26:55;60.17;;;45.85;;
68168;SDS011;54981;50.206;15.978;2022-11-15T06:29:22;62.72;;;49.03;;
68168;SDS011;54981;50.206;15.978;2022-11-15T06:31:47;49.20;;;36.78;;
68168;SDS011;54981;50.206;15.978;2022-11-15T06:34:12;48.67;;;35.53;;
68168;SDS011;54981;50.206;15.978;2022-11-15T06:36:38;82.90;;;37.53;;
68168;SDS011;54981;50.206;15.978;2022-11-15T06:39:03;131.48;;;38.45;;
68168;SDS011;54981;50.206;15.978;2022-11-15T06:41:29;111.47;;;38.83;;
68168;SDS011;54981;50.206;15.978;2022-11-15T06:43:54;83.05;;;40.45;;
68168;SDS011;54981;50.206;15.978;2022-11-15T06:46:21;78.65;;;40.50;;
68168;SDS011;54981;50.206;15.978;2022-11-15T06:48:46;56.38;;;37.38;;
68168;SDS011;54981;50.206;15.978;2022-11-15T06:51:12;59.78;;;39.20;;
68168;SDS011;54981;50.206;15.978;2022-11-15T06:53:38;57.08;;;40.92;;
68168;SDS011;54981;50.206;15.978;2022-11-15T06:56:04;56.75;;;42.58;;
68168;SDS011;54981;50.206;15.978;2022-11-15T06:58:31;67.55;;;47.22;;
68168;SDS011;54981;50.206;15.978;2022-11-15T07:01:00;70.80;;;48.78;;
68168;SDS011;54981;50.206;15.978;2022-11-15T07:03:27;83.45;;;54.92;;
68168;SDS011;54981;50.206;15.978;2022-11-15T07:05:54;84.53;;;57.15;;
68168;SDS011;54981;50.206;15.978;2022-11-15T07:08:21;76.93;;;52.22;;
68168;SDS011;54981;50.206;15.978;2022-11-15T07:10:46;63.92;;;44.33;;
68168;SDS011;54981;50.206;15.978;2022-11-15T07:13:12;56.63;;;40.90;;
68168;SDS011;54981;50.206;15.978;2022-11-15T07:15:37;59.10;;;42.72;;
68168;SDS011;54981;50.206;15.978;2022-11-15T07:18:02;54.75;;;38.67;;
68168;SDS011;54981;50.206;15.978;2022-11-15T07:20:28;48.15;;;36.35;;
68168;SDS011;54981;50.206;15.978;2022-11-15T07:23:03;52.75;;;38.83;;
68168;SDS011;54981;50.206;15.978;2022-11-15T07:25:29;50.00;;;35.88;;
68168;SDS011;54981;50.206;15.978;2022-11-15T07:27:56;51.38;;;37.53;;
68168;SDS011;54981;50.206;15.978;2022-11-15T07:30:22;53.15;;;41.13;;
68168;SDS011;54981;50.206;15.978;2022-11-15T07:32:51;61.35;;;44.95;;
68168;SDS011;54981;50.206;15.978;2022-11-15T07:35:21;76.20;;;53.33;;
68168;SDS011;54981;50.206;15.978;2022-11-15T07:37:59;85.63;;;61.10;;
68168;SDS011;54981;50.206;15.978;2022-11-15T07:40:27;78.10;;;56.20;;
68168;SDS011;54981;50.206;15.978;2022-11-15T07:43:01;72.93;;;52.00;;
68168;SDS011;54981;50.206;15.978;2022-11-15T07:45:28;68.90;;;52.17;;
68168;SDS011;54981;50.206;15.978;2022-11-15T07:47:53;61.88;;;49.85;;
68168;SDS011;54981;50.206;15.978;2022-11-15T07:50:20;75.13;;;59.60;;
68168;SDS011;54981;50.206;15.978;2022-11-15T07:52:46;77.32;;;61.17;;
68168;SDS011;54981;50.206;15.978;2022-11-15T07:55:12;71.97;;;55.95;;
68168;SDS011;54981;50.206;15.978;2022-11-15T07:57:37;79.60;;;63.55;;
68168;SDS011;54981;50.206;15.978;2022-11-15T08:00:03;80.82;;;61.08;;
68168;SDS011;54981;50.206;15.978;2022-11-15T08:02:30;91.28;;;68.97;;
68168;SDS011;54981;50.206;15.978;2022-11-15T08:04:55;79.00;;;60.08;;
68168;SDS011;54981;50.206;15.978;2022-11-15T08:07:20;74.13;;;58.33;;
68168;SDS011;54981;50.206;15.978;2022-11-15T08:09:46;83.35;;;64.28;;
68168;SDS011;54981;50.206;15.978;2022-11-15T08:12:11;82.03;;;66.07;;
68168;SDS011;54981;50.206;15.978;2022-11-15T08:14:36;75.78;;;59.67;;
68168;SDS011;54981;50.206;15.978;2022-11-15T08:17:02;74.05;;;55.20;;
68168;SDS011;54981;50.206;15.978;2022-11-15T08:19:27;68.85;;;53.75;;
68168;SDS011;54981;50.206;15.978;2022-11-15T08:21:52;68.78;;;52.40;;
68168;SDS011;54981;50.206;15.978;2022-11-15T08:24:18;70.63;;;51.70;;
68168;SDS011;54981;50.206;15.978;2022-11-15T08:26:43;65.63;;;58.47;;
68168;SDS011;54981;50.206;15.978;2022-11-15T08:29:09;63.35;;;48.88;;
68168;SDS011;54981;50.206;15.978;2022-11-15T08:31:35;64.32;;;56.78;;
68168;SDS011;54981;50.206;15.978;2022-11-15T08:34:01;69.60;;;62.00;;
68168;SDS011;54981;50.206;15.978;2022-11-15T08:36:27;69.90;;;62.47;;
68168;SDS011;54981;50.206;15.978;2022-11-15T08:38:53;69.60;;;61.00;;
68168;SDS011;54981;50.206;15.978;2022-11-15T08:41:30;72.10;;;64.10;;
68168;SDS011;54981;50.206;15.978;2022-11-15T08:43:58;71.30;;;53.90;;
68168;SDS011;54981;50.206;15.978;2022-11-15T08:46:23;68.85;;;60.28;;
68168;SDS011;54981;50.206;15.978;2022-11-15T08:48:48;65.88;;;58.65;;
68168;SDS011;54981;50.206;15.978;2022-11-15T08:51:14;69.22;;;58.67;;
68168;SDS011;54981;50.206;15.978;2022-11-15T08:53:39;64.75;;;57.65;;
68168;SDS011;54981;50.206;15.978;2022-11-15T08:56:08;67.03;;;59.10;;
68168;SDS011;54981;50.206;15.978;2022-11-15T08:58:38;66.45;;;59.13;;
68168;SDS011;54981;50.206;15.978;2022-11-15T09:01:04;69.90;;;62.30;;
68168;SDS011;54981;50.206;15.978;2022-11-15T09:03:30;86.10;;;76.57;;
68168;SDS011;54981;50.206;15.978;2022-11-15T09:05:56;98.47;;;87.78;;
68168;SDS011;54981;50.206;15.978;2022-11-15T09:08:28;92.43;;;81.65;;
68168;SDS011;54981;50.206;15.978;2022-11-15T09:10:55;95.93;;;85.70;;
68168;SDS011;54981;50.206;15.978;2022-11-15T09:13:20;94.63;;;84.35;;
68168;SDS011;54981;50.206;15.978;2022-11-15T09:15:46;89.85;;;80.05;;
68168;SDS011;54981;50.206;15.978;2022-11-15T09:18:11;86.50;;;73.65;;
68168;SDS011;54981;50.206;15.978;2022-11-15T09:20:37;82.05;;;66.85;;
68168;SDS011;54981;50.206;15.978;2022-11-15T09:23:02;74.10;;;61.88;;
68168;SDS011;54981;50.206;15.978;2022-11-15T09:25:29;71.38;;;58.92;;
68168;SDS011;54981;50.206;15.978;2022-11-15T09:27:55;70.05;;;58.75;;
68168;SDS011;54981;50.206;15.978;2022-11-15T09:30:22;70.72;;;58.35;;
68168;SDS011;54981;50.206;15.978;2022-11-15T09:32:48;70.68;;;55.90;;
68168;SDS011;54981;50.206;15.978;2022-11-15T09:35:13;69.82;;;58.38;;
68168;SDS011;54981;50.206;15.978;2022-11-15T09:37:39;67.85;;;56.47;;
68168;SDS011;54981;50.206;15.978;2022-11-15T09:40:04;72.50;;;57.78;;
68168;SDS011;54981;50.206;15.978;2022-11-15T09:42:34;69.35;;;55.25;;
68168;SDS011;54981;50.206;15.978;2022-11-15T09:52:57;67.90;;;55.05;;
68168;SDS011;54981;50.206;15.978;2022-11-15T09:55:25;64.45;;;54.40;;
68168;SDS011;54981;50.206;15.978;2022-11-15T10:03:23;67.20;;;54.33;;
68168;SDS011;54981;50.206;15.978;2022-11-15T10:05:57;66.65;;;54.88;;
68168;SDS011;54981;50.206;15.978;2022-11-15T10:08:40;70.68;;;55.85;;
68168;SDS011;54981;50.206;15.978;2022-11-15T10:11:11;73.50;;;59.20;;
68168;SDS011;54981;50.206;15.978;2022-11-15T10:13:41;73.72;;;58.03;;
68168;SDS011;54981;50.206;15.978;2022-11-15T10:16:22;72.45;;;58.05;;
68168;SDS011;54981;50.206;15.978;2022-11-15T10:19:15;80.40;;;61.58;;
68168;SDS011;54981;50.206;15.978;2022-11-15T10:24:24;71.13;;;57.38;;
68168;SDS011;54981;50.206;15.978;2022-11-15T10:26:53;73.22;;;55.75;;
68168;SDS011;54981;50.206;15.978;2022-11-15T10:29:21;72.38;;;55.63;;
68168;SDS011;54981;50.206;15.978;2022-11-15T10:31:47;72.78;;;56.83;;
68168;SDS011;54981;50.206;15.978;2022-11-15T10:34:14;79.35;;;60.00;;
68168;SDS011;54981;50.206;15.978;2022-11-15T10:36:54;76.45;;;58.60;;
68168;SDS011;54981;50.206;15.978;2022-11-15T10:39:23;73.57;;;56.00;;
68168;SDS011;54981;50.206;15.978;2022-11-15T10:41:49;72.50;;;55.80;;
68168;SDS011;54981;50.206;15.978;2022-11-15T10:44:22;75.63;;;55.95;;
68168;SDS011;54981;50.206;15.978;2022-11-15T10:49:25;71.78;;;54.10;;
68168;SDS011;54981;50.206;15.978;2022-11-15T10:51:55;70.38;;;54.83;;
68168;SDS011;54981;50.206;15.978;2022-11-15T10:56:52;65.60;;;52.97;;
68168;SDS011;54981;50.206;15.978;2022-11-15T10:59:42;67.25;;;51.95;;
68168;SDS011;54981;50.206;15.978;2022-11-15T11:05:25;72.43;;;52.67;;
68168;SDS011;54981;50.206;15.978;2022-11-15T11:08:03;68.85;;;53.65;;
68168;SDS011;54981;50.206;15.978;2022-11-15T11:10:34;67.60;;;51.42;;
68168;SDS011;54981;50.206;15.978;2022-11-15T11:13:13;64.50;;;50.15;;
68168;SDS011;54981;50.206;15.978;2022-11-15T11:15:40;64.40;;;49.42;;
68168;SDS011;54981;50.206;15.978;2022-11-15T11:18:14;61.10;;;49.42;;
68168;SDS011;54981;50.206;15.978;2022-11-15T11:20:50;61.13;;;49.72;;
68168;SDS011;54981;50.206;15.978;2022-11-15T11:26:42;66.20;;;50.17;;
68168;SDS011;54981;50.206;15.978;2022-11-15T11:37:09;62.00;;;49.60;;
68168;SDS011;54981;50.206;15.978;2022-11-15T11:40:00;64.20;;;50.20;;
68168;SDS011;54981;50.206;15.978;2022-11-15T11:48:14;63.40;;;49.88;;
68168;SDS011;54981;50.206;15.978;2022-11-15T11:50:53;58.20;;;48.97;;
68168;SDS011;54981;50.206;15.978;2022-11-15T11:53:30;61.43;;;49.50;;
68168;SDS011;54981;50.206;15.978;2022-11-15T11:56:05;61.17;;;50.92;;
68168;SDS011;54981;50.206;15.978;2022-11-15T11:58:44;62.03;;;51.50;;
68168;SDS011;54981;50.206;15.978;2022-11-15T12:01:15;58.75;;;47.08;;
68168;SDS011;54981;50.206;15.978;2022-11-15T12:03:50;56.83;;;46.40;;
68168;SDS011;54981;50.206;15.978;2022-11-15T12:09:31;53.95;;;46.30;;
68168;SDS011;54981;50.206;15.978;2022-11-15T12:14:51;53.67;;;46.78;;
68168;SDS011;54981;50.206;15.978;2022-11-15T12:17:34;50.88;;;41.92;;
68168;SDS011;54981;50.206;15.978;2022-11-15T12:20:06;57.95;;;49.15;;
68168;SDS011;54981;50.206;15.978;2022-11-15T12:22:54;55.67;;;45.35;;
68168;SDS011;54981;50.206;15.978;2022-11-15T12:30:16;64.93;;;51.15;;
68168;SDS011;54981;50.206;15.978;2022-11-15T12:32:54;60.38;;;48.70;;
68168;SDS011;54981;50.206;15.978;2022-11-15T12:35:43;67.35;;;51.03;;
68168;SDS011;54981;50.206;15.978;2022-11-15T12:38:11;61.45;;;49.63;;
68168;SDS011;54981;50.206;15.978;2022-11-15T12:40:38;62.92;;;48.08;;
68168;SDS011;54981;50.206;15.978;2022-11-15T12:43:36;66.43;;;51.35;;
68168;SDS011;54981;50.206;15.978;2022-11-15T12:46:04;67.20;;;50.13;;
68168;SDS011;54981;50.206;15.978;2022-11-15T12:51:00;67.30;;;51.95;;
68168;SDS011;54981;50.206;15.978;2022-11-15T12:53:35;64.63;;;49.55;;
68168;SDS011;54981;50.206;15.978;2022-11-15T13:07:10;69.40;;;53.83;;
68168;SDS011;54981;50.206;15.978;2022-11-15T13:17:38;68.68;;;52.05;;
68168;SDS011;54981;50.206;15.978;2022-11-15T13:22:39;73.05;;;54.30;;
68168;SDS011;54981;50.206;15.978;2022-11-15T13:28:02;75.95;;;53.70;;
68168;SDS011;54981;50.206;15.978;2022-11-15T13:30:36;76.38;;;54.97;;
68168;SDS011;54981;50.206;15.978;2022-11-15T13:33:10;72.80;;;53.95;;
68168;SDS011;54981;50.206;15.978;2022-11-15T13:35:57;71.28;;;52.80;;
68168;SDS011;54981;50.206;15.978;2022-11-15T13:40:49;78.67;;;57.83;;
68168;SDS011;54981;50.206;15.978;2022-11-15T13:43:36;82.72;;;58.70;;
68168;SDS011;54981;50.206;15.978;2022-11-15T13:46:09;86.80;;;62.33;;
68168;SDS011;54981;50.206;15.978;2022-11-15T13:48:38;82.45;;;57.28;;
68168;SDS011;54981;50.206;15.978;2022-11-15T13:51:06;83.43;;;59.35;;
68168;SDS011;54981;50.206;15.978;2022-11-15T13:56:05;85.00;;;58.97;;
68168;SDS011;54981;50.206;15.978;2022-11-15T13:58:31;82.75;;;57.38;;
68168;SDS011;54981;50.206;15.978;2022-11-15T14:01:01;83.57;;;59.95;;
68168;SDS011;54981;50.206;15.978;2022-11-15T14:03:41;85.10;;;57.38;;
68168;SDS011;54981;50.206;15.978;2022-11-15T14:06:22;86.70;;;60.47;;
68168;SDS011;54981;50.206;15.978;2022-11-15T14:09:03;87.25;;;59.33;;
68168;SDS011;54981;50.206;15.978;2022-11-15T14:11:53;85.30;;;57.08;;
68168;SDS011;54981;50.206;15.978;2022-11-15T14:14:21;83.32;;;60.72;;
68168;SDS011;54981;50.206;15.978;2022-11-15T14:16:49;84.15;;;59.97;;
68168;SDS011;54981;50.206;15.978;2022-11-15T14:24:38;87.88;;;60.55;;
68168;SDS011;54981;50.206;15.978;2022-11-15T14:27:24;85.35;;;57.40;;
68168;SDS011;54981;50.206;15.978;2022-11-15T14:29:51;86.50;;;59.80;;
68168;SDS011;54981;50.206;15.978;2022-11-15T14:32:24;95.75;;;61.55;;
68168;SDS011;54981;50.206;15.978;2022-11-15T14:34:58;92.85;;;64.88;;
68168;SDS011;54981;50.206;15.978;2022-11-15T14:37:29;87.32;;;60.95;;
68168;SDS011;54981;50.206;15.978;2022-11-15T14:40:00;91.15;;;61.95;;
68168;SDS011;54981;50.206;15.978;2022-11-15T14:42:26;92.57;;;62.72;;
68168;SDS011;54981;50.206;15.978;2022-11-15T14:44:51;91.00;;;64.50;;
68168;SDS011;54981;50.206;15.978;2022-11-15T14:47:16;91.18;;;64.07;;
68168;SDS011;54981;50.206;15.978;2022-11-15T14:49:43;91.80;;;60.33;;
68168;SDS011;54981;50.206;15.978;2022-11-15T14:52:26;86.45;;;60.85;;
68168;SDS011;54981;50.206;15.978;2022-11-15T14:54:53;88.40;;;60.28;;
68168;SDS011;54981;50.206;15.978;2022-11-15T14:57:19;91.75;;;61.10;;
68168;SDS011;54981;50.206;15.978;2022-11-15T14:59:45;95.65;;;63.22;;
68168;SDS011;54981;50.206;15.978;2022-11-15T15:02:15;90.63;;;60.38;;
68168;SDS011;54981;50.206;15.978;2022-11-15T15:04:43;92.25;;;62.20;;
68168;SDS011;54981;50.206;15.978;2022-11-15T15:07:08;92.63;;;62.85;;
68168;SDS011;54981;50.206;15.978;2022-11-15T15:09:33;101.00;;;63.55;;
68168;SDS011;54981;50.206;15.978;2022-11-15T15:11:58;94.97;;;63.90;;
68168;SDS011;54981;50.206;15.978;2022-11-15T15:14:24;94.57;;;66.10;;
68168;SDS011;54981;50.206;15.978;2022-11-15T15:16:49;98.70;;;64.72;;
68168;SDS011;54981;50.206;15.978;2022-11-15T15:19:14;126.47;;;80.32;;
68168;SDS011;54981;50.206;15.978;2022-11-15T15:21:40;94.15;;;63.75;;
68168;SDS011;54981;50.206;15.978;2022-11-15T15:24:05;100.57;;;66.32;;
68168;SDS011;54981;50.206;15.978;2022-11-15T15:26:30;96.38;;;63.22;;
68168;SDS011;54981;50.206;15.978;2022-11-15T15:28:59;103.20;;;64.10;;
68168;SDS011;54981;50.206;15.978;2022-11-15T15:31:25;98.20;;;67.22;;
68168;SDS011;54981;50.206;15.978;2022-11-15T15:33:50;98.20;;;63.92;;
68168;SDS011;54981;50.206;15.978;2022-11-15T15:36:17;97.90;;;64.13;;
68168;SDS011;54981;50.206;15.978;2022-11-15T15:38:44;100.22;;;66.28;;
68168;SDS011;54981;50.206;15.978;2022-11-15T15:41:11;103.30;;;66.57;;
68168;SDS011;54981;50.206;15.978;2022-11-15T15:43:37;99.70;;;65.28;;
68168;SDS011;54981;50.206;15.978;2022-11-15T15:46:04;102.50;;;63.10;;
68168;SDS011;54981;50.206;15.978;2022-11-15T15:48:32;94.07;;;61.72;;
68168;SDS011;54981;50.206;15.978;2022-11-15T15:50:58;104.30;;;67.30;;
68168;SDS011;54981;50.206;15.978;2022-11-15T15:53:23;104.07;;;65.93;;
68168;SDS011;54981;50.206;15.978;2022-11-15T15:55:49;111.30;;;70.28;;
68168;SDS011;54981;50.206;15.978;2022-11-15T15:58:14;106.35;;;71.28;;
68168;SDS011;54981;50.206;15.978;2022-11-15T16:00:39;103.50;;;65.47;;
68168;SDS011;54981;50.206;15.978;2022-11-15T16:03:05;111.90;;;72.88;;
68168;SDS011;54981;50.206;15.978;2022-11-15T16:05:30;104.13;;;71.47;;
68168;SDS011;54981;50.206;15.978;2022-11-15T16:07:56;103.13;;;65.25;;
68168;SDS011;54981;50.206;15.978;2022-11-15T16:12:47;109.28;;;70.20;;
68168;SDS011;54981;50.206;15.978;2022-11-15T16:15:13;103.40;;;67.45;;
68168;SDS011;54981;50.206;15.978;2022-11-15T16:17:40;109.07;;;71.93;;
68168;SDS011;54981;50.206;15.978;2022-11-15T16:20:15;109.25;;;72.05;;
68168;SDS011;54981;50.206;15.978;2022-11-15T16:22:55;102.80;;;66.80;;
68168;SDS011;54981;50.206;15.978;2022-11-15T16:25:21;109.68;;;69.22;;
68168;SDS011;54981;50.206;15.978;2022-11-15T16:27:46;109.72;;;70.03;;